CST,Max TemperatureF,Mean TemperatureF,Min TemperatureF,Max Dew PointF,MeanDew PointF,Min DewpointF,Max Humidity, Mean Humidity, Min Humidity, Max Sea Level PressureIn, Mean Sea Level PressureIn, Min Sea Level PressureIn, Max VisibilityMiles, Mean VisibilityMiles, Min VisibilityMiles, Max Wind SpeedMPH, Mean Wind SpeedMPH, Max Gust SpeedMPH,PrecipitationIn, CloudCover, Events, WindDirDegrees
2011-12-1,69,53,36,55,47,32,85,68,50,30.24,30.14,30.08,10,10,9,16,9,21,0.00,5,,149
2011-12-2,62,55,48,56,49,46,100,86,72,30.34,30.25,30.12,10,4,0,17,7,21,0.28,7,Fog-Rain,347
2011-12-3,69,61,53,64,56,48,93,83,73,30.10,30.03,29.94,10,9,2,24,11,30,0.33,8,Rain,140
2011-12-4,54,49,43,50,44,39,93,88,83,30.17,30.10,30.03,10,7,2,24,13,35,1.04,8,Rain-Thunderstorm,353
2011-12-5,43,39,35,39,36,29,92,84,76,30.30,30.12,29.96,10,7,2,25,17,32,0.93,8,Rain-Thunderstorm,347
2011-12-6,38,34,29,29,25,21,82,73,63,30.39,30.34,30.29,10,10,10,21,14,26,0.00,8,,327
2011-12-7,47,34,21,29,24,19,88,63,37,30.47,30.36,30.29,10,10,10,12,4,13,0.00,0,,228
2011-12-8,53,41,29,37,29,25,85,62,38,30.32,30.22,30.13,10,10,10,16,9,20,0.00,0,,165
2011-12-9,56,47,37,46,42,35,100,83,66,30.45,30.27,30.17,10,6,0,13,5,16,0.00,5,Fog,60
2011-12-10,55,48,40,41,38,35,89,70,50,30.57,30.48,30.43,10,8,5,14,6,18,0.00,4,,8
2011-12-11,52,44,35,36,33,29,92,67,41,30.46,30.36,30.26,10,9,6,13,3,15,0.00,4,,81
2011-12-12,58,53,47,41,34,30,59,51,43,30.29,30.24,30.19,10,10,10,14,6,16,0.00,8,,116
2011-12-13,65,59,53,63,55,36,97,72,47,30.26,30.18,30.09,10,4,0,22,9,29,0.04,8,Fog-Rain,126
2011-12-14,69,65,60,66,64,56,93,90,87,30.08,29.98,29.92,10,6,2,25,12,30,0.34,8,Rain,167
2011-12-15,60,55,50,54,50,44,94,87,77,30.22,30.10,30.01,10,6,2,20,9,22,0.87,8,Rain,13
2011-12-16,57,50,43,45,40,34,93,77,61,30.43,30.33,30.22,10,10,7,21,12,24,T,7,Rain,358
2011-12-17,59,48,36,43,35,29,86,61,36,30.52,30.45,30.41,10,10,10,10,4,13,0.00,3,,340
2011-12-18,58,54,49,45,41,38,86,69,51,30.41,30.28,30.10,10,10,9,14,6,18,0.00,6,,150
2011-12-19,67,58,49,63,54,42,100,78,55,30.07,29.85,29.73,10,7,1,28,11,35,0.45,7,Rain-Thunderstorm,146
2011-12-20,54,46,37,50,40,33,100,73,46,30.04,29.94,29.87,10,6,0,24,10,30,0.00,0,Fog,268
2011-12-21,50,43,36,42,34,31,89,70,50,30.07,29.99,29.92,10,10,10,14,5,16,0.05,3,Rain,212
2011-12-22,66,55,43,46,42,36,96,70,44,30.29,30.03,29.89,10,9,4,28,8,33,0.11,4,Rain,276
2011-12-23,44,42,40,36,35,33,79,75,70,30.45,30.38,30.29,10,10,10,22,12,26,0.00,8,,357
2011-12-24,43,41,39,38,36,36,92,84,76,30.45,30.39,30.35,10,9,4,18,10,23,0.28,8,Rain,3
2011-12-25,44,42,39,41,38,36,96,88,79,30.44,30.39,30.33,10,5,1,16,10,21,0.03,8,Rain,335
2011-12-26,52,43,34,41,38,30,96,74,52,30.30,30.20,30.06,10,8,2,15,8,20,0.01,7,,305
2011-12-27,61,46,30,34,31,27,89,61,32,30.27,30.20,30.14,10,10,10,17,6,23,0.00,0,,302
2011-12-28,61,46,31,40,35,28,89,68,46,30.20,30.08,29.99,10,10,10,22,7,26,0.00,0,,191
2011-12-29,67,49,30,40,36,28,92,63,34,30.06,29.96,29.86,10,10,10,14,6,16,0.00,0,,197
2011-12-30,71,52,33,41,35,30,96,59,22,30.09,30.00,29.85,10,10,10,16,7,24,0.00,0,Rain,360
2011-12-31,74,53,32,46,39,30,92,64,35,30.16,30.01,29.89,10,10,10,26,8,45,0.00,0,,215